Time;durP1;ratioP1;P1;durP2;ratioP2;P2;SDS_P1;SDS_P2;PMS_P1;PMS_P2;Temp;Humidity;BMP_temperature;BMP_pressure;BME280_temperature;BME280_humidity;BME280_pressure;Samples;Min_cycle;Max_cycle;Signal;HPM_P1;HPM_P2
2022/07/30 00:03:59;;;;;;;7.25;5.65;;;;;;;17.43;100.00;96563.72;10450190;28;20186;-58
2022/07/30 00:08:59;;;;;;;7.03;6.15;;;;;;;17.24;100.00;96560.03;10449694;28;20273;-55
2022/07/30 00:14:00;;;;;;;7.13;5.78;;;;;;;17.24;100.00;96567.97;10449168;28;20191;-56
2022/07/30 00:19:01;;;;;;;5.22;4.65;;;;;;;17.27;100.00;96567.56;10449258;28;20349;-54
2022/07/30 00:24:01;;;;;;;6.28;4.95;;;;;;;17.18;100.00;96566.13;10449485;28;20746;-57
2022/07/30 00:29:02;;;;;;;8.60;6.40;;;;;;;16.88;100.00;96571.78;10449314;28;20228;-57
2022/07/30 00:34:02;;;;;;;8.20;6.43;;;;;;;16.85;100.00;96564.22;10449378;28;20188;-55
2022/07/30 00:39:03;;;;;;;9.93;6.13;;;;;;;16.80;100.00;96561.34;10430593;28;20212;-54
2022/07/30 00:44:03;;;;;;;8.15;6.65;;;;;;;16.68;100.00;96563.78;10448572;28;20203;-55
2022/07/30 00:49:04;;;;;;;7.72;6.05;;;;;;;16.65;100.00;96562.34;10448576;28;20235;-56
2022/07/30 00:54:04;;;;;;;7.85;5.90;;;;;;;16.68;100.00;96564.59;10448883;28;20192;-58
2022/07/30 00:59:05;;;;;;;6.35;5.35;;;;;;;16.76;100.00;96563.59;10430280;28;20208;-53
2022/07/30 01:04:10;;;;;;;7.25;5.65;;;;;;;16.75;100.00;96560.13;10448529;28;20330;-55
2022/07/30 01:09:10;;;;;;;7.75;6.40;;;;;;;16.74;100.00;96555.84;10430064;28;20319;-56
2022/07/30 01:14:11;;;;;;;8.95;6.63;;;;;;;16.58;100.00;96546.47;10448479;28;20274;-56
2022/07/30 01:25:01;;;;;;;10.25;6.72;;;;;;;16.46;100.00;96533.97;10434362;28;20192;-57
2022/07/30 01:30:04;;;;;;;6.90;6.20;;;;;;;16.39;100.00;96523.41;10422062;28;20229;-55
2022/07/30 01:35:06;;;;;;;10.23;6.70;;;;;;;16.24;100.00;96515.59;10438030;28;20222;-60
2022/07/30 01:40:07;;;;;;;7.95;7.15;;;;;;;16.07;100.00;96517.75;10437891;28;20261;-59
2022/07/30 01:45:09;;;;;;;8.00;6.93;;;;;;;16.17;100.00;96520.03;10438020;28;20290;-59
2022/07/30 01:50:14;;;;;;;8.55;7.20;;;;;;;16.10;100.00;96513.94;10437584;28;20227;-59
2022/07/30 01:55:20;;;;;;;10.63;7.18;;;;;;;16.10;100.00;96516.56;10421641;28;20564;-60
2022/07/30 02:00:21;;;;;;;8.57;7.07;;;;;;;16.13;100.00;96513.53;10420947;28;20208;-60
2022/07/30 02:05:23;;;;;;;8.35;7.50;;;;;;;16.04;100.00;96521.59;10420615;28;20662;-61
2022/07/30 02:10:30;;;;;;;8.52;7.63;;;;;;;15.95;100.00;96519.34;10454494;28;20216;-61
2022/07/30 02:15:53;;;;;;;9.70;8.77;;;;;;;15.99;100.00;96516.09;10420551;28;20192;-60
2022/07/30 02:21:00;;;;;;;11.63;9.98;;;;;;;16.00;100.00;96512.47;10436009;28;20237;-61
2022/07/30 02:26:02;;;;;;;12.73;11.20;;;;;;;15.90;100.00;96519.91;10420033;28;20216;-59
2022/07/30 02:31:04;;;;;;;12.23;11.00;;;;;;;15.91;100.00;96521.56;10419717;28;20342;-57
2022/07/30 02:36:06;;;;;;;14.05;10.65;;;;;;;15.95;100.00;96528.06;10435190;28;20271;-59
2022/07/30 02:41:08;;;;;;;12.15;10.80;;;;;;;15.97;100.00;96531.34;10453646;28;20299;-58
2022/07/30 02:46:11;;;;;;;11.82;10.63;;;;;;;15.91;100.00;96528.66;10435386;28;20222;-57
2022/07/30 02:51:31;;;;;;;10.27;9.18;;;;;;;15.96;100.00;96534.19;10438037;28;20224;-60
2022/07/30 02:56:33;;;;;;;12.60;10.82;;;;;;;15.93;100.00;96535.38;10452792;28;20188;-59
2022/07/30 03:01:34;;;;;;;13.93;12.43;;;;;;;15.92;100.00;96536.38;10434825;28;20218;-60
2022/07/30 03:06:35;;;;;;;16.48;13.45;;;;;;;15.83;100.00;96535.75;10434678;28;20220;-61
2022/07/30 03:11:37;;;;;;;18.52;16.42;;;;;;;15.79;100.00;96538.94;10434583;28;20188;-58
2022/07/30 03:16:40;;;;;;;19.50;16.35;;;;;;;15.74;100.00;96530.75;10417610;28;20202;-60
2022/07/30 03:21:41;;;;;;;21.45;18.95;;;;;;;15.74;100.00;96534.19;10434350;28;21024;-60
2022/07/30 03:26:42;;;;;;;26.40;20.80;;;;;;;15.82;100.00;96533.28;10417326;28;20220;-60
2022/07/30 03:31:43;;;;;;;26.42;21.10;;;;;;;15.76;100.00;96534.84;10417176;28;20226;-59
2022/07/30 03:36:43;;;;;;;23.55;20.70;;;;;;;15.71;100.00;96542.50;10416970;28;20184;-59
2022/07/30 03:41:45;;;;;;;22.52;19.45;;;;;;;15.79;100.00;96544.22;10433471;28;20257;-57
2022/07/30 03:46:51;;;;;;;19.45;17.17;;;;;;;15.80;100.00;96537.94;10432676;28;20243;-58
2022/07/30 03:51:52;;;;;;;26.30;20.15;;;;;;;15.65;100.00;96541.47;10433385;28;20250;-56
2022/07/30 03:56:52;;;;;;;23.60;19.17;;;;;;;15.62;100.00;96547.13;10416090;28;20211;-54
2022/07/30 04:02:10;;;;;;;24.48;19.15;;;;;;;15.52;100.00;96542.19;10418302;28;20192;-57
2022/07/30 04:07:29;;;;;;;21.60;18.73;;;;;;;15.47;100.00;96547.22;10449880;28;20220;-57
2022/07/30 04:12:29;;;;;;;26.00;20.48;;;;;;;15.57;100.00;96551.34;10432492;28;20199;-58
2022/07/30 04:17:35;;;;;;;23.63;19.42;;;;;;;15.64;100.00;96560.97;10432212;28;20292;-56
2022/07/30 04:22:38;;;;;;;18.08;16.13;;;;;;;15.66;100.00;96545.72;10415442;28;20203;-57
2022/07/30 04:27:41;;;;;;;19.85;16.95;;;;;;;15.59;100.00;96550.16;10415459;28;20264;-57
2022/07/30 04:32:41;;;;;;;20.40;16.73;;;;;;;15.58;100.00;96545.88;10415469;28;20260;-57
2022/07/30 04:38:13;;;;;;;16.80;14.98;;;;;;;15.55;100.00;96553.38;10418768;28;20212;-56
2022/07/30 04:43:14;;;;;;;15.57;13.80;;;;;;;15.77;100.00;96549.69;10431650;28;20195;-55
2022/07/30 04:48:14;;;;;;;13.98;12.48;;;;;;;15.75;100.00;96542.97;10430955;28;20790;-55
2022/07/30 04:53:32;;;;;;;15.55;12.55;;;;;;;15.55;100.00;96537.53;10431351;28;20210;-59
2022/07/30 04:58:35;;;;;;;13.50;11.90;;;;;;;15.59;100.00;96541.41;10430898;28;20571;-56
2022/07/30 05:03:36;;;;;;;16.67;12.65;;;;;;;15.66;100.00;96535.16;10414431;28;20192;-54
2022/07/30 05:08:37;;;;;;;12.82;11.45;;;;;;;15.72;100.00;96536.22;10414334;28;20261;-58
2022/07/30 05:13:41;;;;;;;14.40;11.85;;;;;;;15.74;100.00;96530.75;10431249;28;20196;-54
2022/07/30 05:18:44;;;;;;;13.80;12.40;;;;;;;15.86;100.00;96530.06;10430664;28;20210;-57
2022/07/30 05:23:44;;;;;;;12.60;11.32;;;;;;;15.83;100.00;96516.41;10430927;28;20655;-57
2022/07/30 05:28:49;;;;;;;14.13;12.23;;;;;;;15.94;100.00;96515.88;10431007;28;20215;-59
2022/07/30 05:33:53;;;;;;;12.95;11.65;;;;;;;16.02;100.00;96515.72;10430465;28;20187;-58
2022/07/30 05:38:59;;;;;;;16.05;12.02;;;;;;;15.98;100.00;96511.81;10430503;28;20211;-59
2022/07/30 05:44:08;;;;;;;15.02;11.77;;;;;;;16.10;100.00;96519.22;10430857;28;20211;-60
2022/07/30 05:49:08;;;;;;;12.40;10.93;;;;;;;16.32;100.00;96515.41;10429631;28;20322;-54
2022/07/30 05:54:09;;;;;;;12.00;10.38;;;;;;;16.50;100.00;96522.00;10430817;22;20249;-61
2022/07/30 05:59:20;;;;;;;15.07;11.82;;;;;;;16.46;100.00;96529.53;10350382;28;20669;-63
2022/07/30 06:04:53;;;;;;;14.57;12.15;;;;;;;16.55;100.00;96528.34;10334653;28;20213;-63
2022/07/30 06:09:58;;;;;;;12.57;10.93;;;;;;;16.61;100.00;96534.66;10307920;28;20228;-63
2022/07/30 06:14:59;;;;;;;12.43;11.10;;;;;;;16.66;100.00;96539.34;10313989;28;20206;-63
2022/07/30 06:20:04;;;;;;;11.40;10.25;;;;;;;16.83;100.00;96537.97;10331556;28;20193;-63
2022/07/30 06:25:13;;;;;;;12.98;10.15;;;;;;;16.94;100.00;96531.31;10314878;28;20217;-61
2022/07/30 06:30:14;;;;;;;14.15;11.50;;;;;;;16.94;100.00;96537.41;10347064;28;20763;-60
2022/07/30 06:35:15;;;;;;;15.73;10.38;;;;;;;17.07;100.00;96549.81;10314124;28;20236;-63
2022/07/30 06:40:16;;;;;;;14.80;9.90;;;;;;;17.00;100.00;96562.25;10314490;28;20178;-63
2022/07/30 06:45:39;;;;;;;14.07;9.65;;;;;;;17.01;100.00;96555.94;10330285;28;20222;-63
2022/07/30 06:50:58;;;;;;;13.82;8.65;;;;;;;16.99;100.00;96559.81;10308062;28;20194;-62
2022/07/30 06:55:59;;;;;;;13.52;10.80;;;;;;;17.14;100.00;96562.28;10314102;28;20599;-60
2022/07/30 07:01:03;;;;;;;11.40;10.20;;;;;;;17.00;100.00;96564.91;10327912;28;20676;-61
2022/07/30 07:06:04;;;;;;;11.85;9.23;;;;;;;17.08;100.00;96575.28;10327574;28;20225;-61
2022/07/30 07:11:05;;;;;;;12.02;8.40;;;;;;;17.09;100.00;96571.63;10327774;28;20275;-62
2022/07/30 07:16:15;;;;;;;10.60;8.52;;;;;;;16.94;100.00;96584.22;10327365;28;20566;-62
2022/07/30 07:21:20;;;;;;;9.85;7.90;;;;;;;16.95;100.00;96575.25;10325532;28;20289;-60
2022/07/30 07:26:20;;;;;;;9.70;8.50;;;;;;;17.04;100.00;96571.41;10308620;28;20214;-62
2022/07/30 07:31:21;;;;;;;13.65;8.50;;;;;;;16.96;100.00;96573.44;10293648;28;20626;-62
2022/07/30 07:36:22;;;;;;;11.57;9.10;;;;;;;16.77;100.00;96579.25;10307435;28;20210;-60
2022/07/30 07:41:22;;;;;;;10.43;8.63;;;;;;;16.86;100.00;96584.34;10303015;28;20297;-62
2022/07/30 07:46:23;;;;;;;10.27;8.82;;;;;;;17.01;100.00;96579.75;10321889;28;20243;-62
2022/07/30 07:51:23;;;;;;;9.43;8.43;;;;;;;17.06;100.00;96582.63;10301345;28;20312;-62
2022/07/30 07:56:24;;;;;;;14.50;8.23;;;;;;;16.84;100.00;96584.56;10268940;28;20234;-61
2022/07/30 08:01:25;;;;;;;13.57;9.13;;;;;;;16.81;100.00;96587.59;10276128;28;20217;-61
2022/07/30 08:06:44;;;;;;;14.48;8.65;;;;;;;16.55;100.00;96588.31;10282890;28;20234;-63
2022/07/30 08:12:03;;;;;;;15.13;9.55;;;;;;;16.25;100.00;96590.41;10283568;28;20206;-62
2022/07/30 08:17:33;;;;;;;21.55;11.27;;;;;;;15.87;100.00;96612.75;10282586;28;20246;-62
2022/07/30 08:22:42;;;;;;;17.45;11.02;;;;;;;15.42;100.00;96617.44;10280930;28;20618;-62
2022/07/30 08:27:43;;;;;;;14.65;11.27;;;;;;;15.15;100.00;96623.28;10279865;28;20265;-61
2022/07/30 08:32:44;;;;;;;30.38;20.35;;;;;;;15.09;100.00;96624.03;10281693;28;20684;-64
2022/07/30 08:37:45;;;;;;;20.70;14.45;;;;;;;14.91;100.00;96626.28;10279705;28;20190;-62
2022/07/30 08:42:46;;;;;;;14.00;11.95;;;;;;;14.89;100.00;96633.56;10280484;28;20210;-62
2022/07/30 08:47:47;;;;;;;17.63;13.07;;;;;;;14.79;100.00;96631.19;10280521;28;20218;-62
2022/07/30 08:52:55;;;;;;;17.08;13.85;;;;;;;14.97;100.00;96628.16;10282221;28;20249;-62
2022/07/30 08:57:55;;;;;;;14.07;12.68;;;;;;;15.16;100.00;96635.47;10310891;28;20197;-61
2022/07/30 09:02:56;;;;;;;19.83;15.55;;;;;;;15.35;100.00;96635.88;10322070;28;20836;-62
2022/07/30 09:07:56;;;;;;;23.77;15.82;;;;;;;15.20;100.00;96635.09;10321488;28;20249;-60
2022/07/30 09:12:58;;;;;;;18.33;16.33;;;;;;;15.38;100.00;96632.84;10337033;28;20572;-62
2022/07/30 09:18:01;;;;;;;19.55;16.52;;;;;;;15.64;100.00;96629.63;10321834;28;20214;-61
2022/07/30 09:23:05;;;;;;;22.02;15.98;;;;;;;15.54;100.00;96634.41;10304369;28;20221;-62
2022/07/30 09:28:11;;;;;;;17.23;14.63;;;;;;;15.31;100.00;96638.06;10320930;28;20222;-61
2022/07/30 09:33:50;;;;;;;19.90;15.00;;;;;;;15.50;100.00;96636.63;10156111;29;20307;-61
2022/07/30 09:39:09;;;;;;;14.57;12.20;;;;;;;15.36;100.00;96634.88;10294867;28;20665;-60
2022/07/30 09:44:45;;;;;;;13.82;10.20;;;;;;;15.02;100.00;96652.16;10320833;28;20257;-59
2022/07/30 09:50:02;;;;;;;11.13;9.75;;;;;;;14.97;100.00;96654.53;10311446;28;20395;-59
2022/07/30 09:55:04;;;;;;;13.88;10.25;;;;;;;15.10;100.00;96657.34;10312451;28;20245;-62
2022/07/30 10:00:22;;;;;;;12.10;10.05;;;;;;;15.12;100.00;96654.50;10315876;28;20672;-62
2022/07/30 10:05:31;;;;;;;11.52;9.40;;;;;;;15.11;100.00;96660.78;10309284;28;20682;-63
2022/07/30 10:10:32;;;;;;;10.27;9.25;;;;;;;15.21;100.00;96663.94;10310383;28;20283;-59
2022/07/30 10:15:34;;;;;;;10.25;8.48;;;;;;;15.05;100.00;96657.06;10295653;28;20233;-57
2022/07/30 10:20:35;;;;;;;13.68;9.20;;;;;;;15.24;100.00;96666.22;10311500;28;20241;-60
2022/07/30 10:25:56;;;;;;;9.48;8.27;;;;;;;15.33;100.00;96659.00;10325825;28;20225;-59
2022/07/30 10:31:15;;;;;;;12.60;8.40;;;;;;;15.44;100.00;96655.03;10344131;28;20197;-59
2022/07/30 10:36:16;;;;;;;9.65;8.48;;;;;;;15.38;100.00;96661.06;10368476;28;20213;-60
2022/07/30 10:41:34;;;;;;;10.55;9.55;;;;;;;15.43;100.00;96666.59;10368840;28;20193;-60
2022/07/30 10:46:59;;;;;;;12.27;10.18;;;;;;;15.34;100.00;96669.38;10367786;28;20245;-56
2022/07/30 10:52:00;;;;;;;11.38;8.50;;;;;;;15.55;100.00;96675.66;10366953;28;20610;-59
2022/07/30 10:57:10;;;;;;;13.00;9.45;;;;;;;15.55;100.00;96678.28;10366894;28;20295;-60
2022/07/30 11:02:10;;;;;;;12.05;9.57;;;;;;;15.17;100.00;96670.59;10368147;28;20557;-62
2022/07/30 11:07:28;;;;;;;12.57;10.60;;;;;;;15.31;100.00;96675.03;10349851;28;20225;-62
2022/07/30 11:12:40;;;;;;;17.13;10.70;;;;;;;15.31;100.00;96672.38;10362741;28;20185;-63
2022/07/30 11:17:58;;;;;;;19.13;12.50;;;;;;;15.13;100.00;96672.78;10348153;28;20194;-63
2022/07/30 11:23:17;;;;;;;16.42;14.07;;;;;;;15.05;100.00;96667.59;10326417;28;20713;-63
2022/07/30 11:28:38;;;;;;;18.45;14.25;;;;;;;15.13;100.00;96664.03;10328832;28;20218;-62
2022/07/30 11:33:39;;;;;;;16.15;14.48;;;;;;;15.38;100.00;96669.81;10342977;28;20221;-61
2022/07/30 11:38:52;;;;;;;19.02;16.52;;;;;;;15.35;100.00;96675.47;10317210;28;20193;-63
2022/07/30 11:44:28;;;;;;;26.25;17.08;;;;;;;15.53;100.00;96672.38;10345807;28;20214;-60
2022/07/30 11:49:34;;;;;;;18.63;16.65;;;;;;;16.02;100.00;96679.53;10341973;28;20227;-58
2022/07/30 11:54:50;;;;;;;24.38;16.50;;;;;;;16.27;100.00;96678.28;10332887;28;20226;-58
2022/07/30 11:59:52;;;;;;;20.35;16.02;;;;;;;16.33;100.00;96673.03;10341510;28;20217;-59
2022/07/30 12:04:52;;;;;;;17.05;15.32;;;;;;;16.49;100.00;96673.72;10369062;23;20219;-57
2022/07/30 12:09:53;;;;;;;14.90;13.23;;;;;;;16.71;100.00;96669.19;10347958;28;20225;-58
2022/07/30 12:14:53;;;;;;;20.08;14.98;;;;;;;16.81;100.00;96668.81;10364532;28;20204;-58
2022/07/30 12:19:53;;;;;;;17.17;15.38;;;;;;;17.02;100.00;96668.72;10359675;28;20193;-57
2022/07/30 12:24:54;;;;;;;22.63;14.65;;;;;;;17.39;100.00;96669.22;10379992;28;20257;-57
2022/07/30 12:29:54;;;;;;;15.57;14.02;;;;;;;17.09;100.00;96668.72;10401983;28;20216;-55
2022/07/30 12:34:55;;;;;;;21.33;14.57;;;;;;;17.78;100.00;96669.50;10387459;28;20189;-55
2022/07/30 12:40:13;;;;;;;21.50;13.00;;;;;;;17.94;100.00;96666.47;10404919;28;20648;-53
2022/07/30 12:45:28;;;;;;;15.18;13.38;;;;;;;17.90;100.00;96664.41;10404524;28;20216;-56
2022/07/30 12:50:30;;;;;;;17.58;13.25;;;;;;;17.87;100.00;96656.84;10404751;28;21086;-54
2022/07/30 12:55:31;;;;;;;16.48;13.20;;;;;;;17.96;100.00;96661.78;10386644;28;20310;-56
2022/07/30 13:00:49;;;;;;;15.43;12.18;;;;;;;18.27;100.00;96656.84;10404106;28;20235;-53
2022/07/30 13:05:51;;;;;;;16.40;11.35;;;;;;;18.49;100.00;96655.56;10404152;28;20228;-63
2022/07/30 13:10:56;;;;;;;11.00;9.90;;;;;;;18.90;100.00;96651.00;10404290;28;20192;-58
2022/07/30 13:16:01;;;;;;;12.55;10.23;;;;;;;19.12;100.00;96659.44;10388973;28;20223;-56
2022/07/30 13:21:03;;;;;;;10.32;9.15;;;;;;;19.27;100.00;96663.69;10363306;28;20560;-58
2022/07/30 13:26:04;;;;;;;10.35;8.70;;;;;;;19.67;100.00;96658.13;10407291;28;20217;-56
2022/07/30 13:31:06;;;;;;;11.23;8.90;;;;;;;18.92;100.00;96674.66;10412203;28;20676;-57
2022/07/30 13:36:06;;;;;;;15.90;9.32;;;;;;;19.45;100.00;96654.97;10411820;28;20267;-52
2022/07/30 13:41:07;;;;;;;15.40;9.57;;;;;;;19.48;100.00;96652.72;10405629;28;20189;-58
2022/07/30 13:46:07;;;;;;;9.95;8.75;;;;;;;19.66;100.00;96648.50;10402467;28;20733;-57
2022/07/30 13:51:07;;;;;;;18.27;10.07;;;;;;;19.33;100.00;96652.22;10410212;28;20199;-53
2022/07/30 13:56:08;;;;;;;13.68;9.10;;;;;;;19.39;100.00;96648.69;10410792;28;20543;-57
2022/07/30 14:01:09;;;;;;;11.27;9.13;;;;;;;18.93;100.00;96665.66;10410882;28;20595;-58
2022/07/30 14:06:09;;;;;;;14.13;10.18;;;;;;;18.91;100.00;96667.72;10410868;28;20802;-57
2022/07/30 14:11:10;;;;;;;11.05;9.20;;;;;;;18.54;100.00;96671.69;10410558;28;20280;-57
2022/07/30 14:16:10;;;;;;;14.43;8.25;;;;;;;18.60;100.00;96662.06;10410453;28;20443;-59
2022/07/30 14:21:11;;;;;;;13.25;8.80;;;;;;;18.66;100.00;96666.53;10409786;28;20304;-60
2022/07/30 14:26:12;;;;;;;15.40;9.38;;;;;;;18.98;100.00;96657.91;10409767;28;20319;-56
2022/07/30 14:31:13;;;;;;;16.13;9.30;;;;;;;18.43;100.00;96659.06;10410408;28;20188;-58
2022/07/30 14:36:13;;;;;;;9.65;8.27;;;;;;;18.97;100.00;96658.91;10439710;28;20287;-58
2022/07/30 14:41:13;;;;;;;13.02;9.40;;;;;;;19.19;100.00;96664.75;10409708;28;20188;-59
2022/07/30 14:46:14;;;;;;;17.13;8.68;;;;;;;19.00;100.00;96667.25;10422281;28;20215;-58
2022/07/30 14:51:14;;;;;;;13.45;8.80;;;;;;;18.57;100.00;96665.16;10408236;28;20188;-58
2022/07/30 14:56:15;;;;;;;10.93;8.70;;;;;;;18.43;100.00;96659.06;10425422;28;20243;-58
2022/07/30 15:01:16;;;;;;;14.35;7.28;;;;;;;18.92;100.00;96661.41;10421798;28;20720;-53
2022/07/30 15:06:16;;;;;;;9.13;7.18;;;;;;;18.99;100.00;96655.03;10420306;28;20603;-54
2022/07/30 15:11:17;;;;;;;11.23;6.65;;;;;;;19.65;98.32;96641.56;10427443;28;20279;-59
2022/07/30 15:16:18;;;;;;;9.70;6.10;;;;;;;19.94;93.31;96632.97;10425944;28;20710;-60
2022/07/30 15:21:18;;;;;;;7.15;5.97;;;;;;;19.89;96.25;96643.47;10410146;28;20499;-60
2022/07/30 15:26:18;;;;;;;11.07;5.95;;;;;;;20.14;91.14;96637.31;10407708;28;20315;-59
2022/07/30 15:31:19;;;;;;;10.85;5.97;;;;;;;20.43;91.44;96642.97;10407531;28;20184;-59
2022/07/30 15:36:19;;;;;;;7.82;5.88;;;;;;;20.56;90.19;96639.34;10407407;28;20235;-60
2022/07/30 15:41:19;;;;;;;10.68;6.13;;;;;;;20.74;91.14;96651.88;10407362;28;20192;-60
2022/07/30 15:46:20;;;;;;;9.50;5.65;;;;;;;20.65;91.76;96654.00;10407044;28;20217;-59
2022/07/30 15:51:20;;;;;;;10.50;6.72;;;;;;;21.04;89.66;96649.22;10406639;28;20199;-59
2022/07/30 15:56:20;;;;;;;10.55;6.80;;;;;;;20.96;90.70;96653.00;10389144;28;20216;-57
2022/07/30 16:01:21;;;;;;;7.93;5.85;;;;;;;21.52;88.46;96644.94;10405554;28;21029;-59
2022/07/30 16:06:21;;;;;;;11.05;6.00;;;;;;;21.25;88.68;96649.78;10405673;28;20598;-56
2022/07/30 16:11:22;;;;;;;9.38;6.45;;;;;;;20.73;92.26;96658.22;10411550;28;20199;-58
2022/07/30 16:16:23;;;;;;;10.55;6.38;;;;;;;20.55;93.26;96665.16;10421132;28;20231;-56
2022/07/30 16:21:23;;;;;;;8.73;6.47;;;;;;;19.71;100.00;96672.56;10413340;28;20290;-59
2022/07/30 16:26:23;;;;;;;13.50;7.85;;;;;;;19.76;100.00;96665.59;10431418;28;20247;-57
2022/07/30 16:31:24;;;;;;;8.63;6.85;;;;;;;19.92;100.00;96672.28;10446193;28;20192;-55
2022/07/30 16:36:24;;;;;;;11.10;7.68;;;;;;;19.89;96.73;96675.38;10445783;28;20214;-59
2022/07/30 16:41:25;;;;;;;9.55;7.40;;;;;;;19.44;100.00;96691.38;10446220;28;20286;-59
2022/07/30 16:46:26;;;;;;;9.38;7.80;;;;;;;19.60;100.00;96687.38;10445865;28;20258;-59
2022/07/30 16:51:26;;;;;;;10.57;8.32;;;;;;;19.57;100.00;96691.28;10445544;28;20321;-59
2022/07/30 16:56:26;;;;;;;10.98;9.13;;;;;;;20.00;100.00;96694.28;10445469;28;20355;-56
2022/07/30 17:01:27;;;;;;;11.50;7.53;;;;;;;20.05;100.00;96705.09;10445583;28;20567;-59
2022/07/30 17:06:27;;;;;;;8.38;7.38;;;;;;;20.24;100.00;96700.63;10445163;28;20354;-56
2022/07/30 17:11:28;;;;;;;10.25;7.68;;;;;;;19.94;100.00;96714.59;10444676;28;20737;-57
2022/07/30 17:16:28;;;;;;;11.07;7.72;;;;;;;19.56;100.00;96713.56;10445051;28;20269;-55
2022/07/30 17:21:28;;;;;;;13.38;7.50;;;;;;;19.52;100.00;96724.84;10444914;28;20207;-58
2022/07/30 17:26:30;;;;;;;11.32;7.30;;;;;;;19.29;100.00;96733.34;10404387;28;20291;-54
2022/07/30 17:31:30;;;;;;;14.18;7.95;;;;;;;19.04;100.00;96726.88;10404059;28;20185;-57
2022/07/30 17:36:31;;;;;;;9.57;7.50;;;;;;;18.66;100.00;96737.38;10403371;28;20220;-57
2022/07/30 17:41:31;;;;;;;12.55;8.02;;;;;;;18.45;100.00;96741.09;10403763;28;20231;-57
2022/07/30 17:46:33;;;;;;;11.38;7.63;;;;;;;18.31;100.00;96740.28;10403635;28;20315;-54
2022/07/30 17:51:35;;;;;;;15.63;7.82;;;;;;;18.08;100.00;96733.53;10403306;28;20203;-53
2022/07/30 17:56:36;;;;;;;13.90;8.68;;;;;;;18.09;100.00;96752.94;10403128;28;20216;-57
2022/07/30 18:01:36;;;;;;;10.98;8.40;;;;;;;17.97;100.00;96753.53;10403683;28;20250;-58
2022/07/30 18:06:37;;;;;;;13.02;7.40;;;;;;;17.79;100.00;96755.91;10403928;28;20386;-54
2022/07/30 18:11:37;;;;;;;12.23;8.07;;;;;;;17.73;100.00;96764.66;10365364;22;20245;-58
2022/07/30 18:16:37;;;;;;;13.23;8.40;;;;;;;17.34;100.00;96774.13;10329024;28;20190;-58
2022/07/30 18:21:38;;;;;;;10.38;7.40;;;;;;;17.33;100.00;96773.31;10325683;28;20214;-59
2022/07/30 18:26:38;;;;;;;12.13;8.30;;;;;;;17.11;100.00;96791.13;10369413;28;20263;-58
2022/07/30 18:31:39;;;;;;;11.75;8.90;;;;;;;16.83;100.00;96784.03;10370301;28;20217;-59
2022/07/30 18:36:39;;;;;;;13.38;8.52;;;;;;;16.77;100.00;96793.56;10370114;28;20181;-57
2022/07/30 18:41:39;;;;;;;10.10;8.35;;;;;;;16.57;100.00;96797.91;10369084;28;20212;-60
2022/07/30 18:46:40;;;;;;;11.18;8.55;;;;;;;16.47;100.00;96798.22;10370047;28;20292;-57
2022/07/30 18:51:40;;;;;;;11.05;9.45;;;;;;;16.34;100.00;96803.38;10370235;28;20208;-59
2022/07/30 18:56:41;;;;;;;13.00;11.05;;;;;;;16.09;100.00;96813.53;10369129;28;20189;-59
2022/07/30 19:01:42;;;;;;;11.60;9.80;;;;;;;16.21;100.00;96812.84;10371105;28;20220;-60
2022/07/30 19:06:43;;;;;;;17.38;10.98;;;;;;;15.63;100.00;96822.59;10370639;28;20684;-59
2022/07/30 19:11:44;;;;;;;14.23;11.20;;;;;;;15.61;100.00;96828.06;10368544;28;20229;-60
2022/07/30 19:16:45;;;;;;;12.30;10.60;;;;;;;15.67;100.00;96827.31;10368056;28;20198;-60
2022/07/30 19:21:45;;;;;;;12.02;10.30;;;;;;;15.37;100.00;96826.53;10367205;28;20579;-58
2022/07/30 19:26:45;;;;;;;16.13;10.98;;;;;;;15.24;100.00;96840.41;10369094;28;20877;-58
2022/07/30 19:31:46;;;;;;;15.75;12.15;;;;;;;15.22;100.00;96838.94;10368722;28;20240;-59
2022/07/30 19:36:46;;;;;;;15.43;11.93;;;;;;;15.07;100.00;96844.19;10367723;28;20194;-61
2022/07/30 19:41:46;;;;;;;15.20;13.43;;;;;;;14.68;100.00;96842.63;10367221;28;20347;-59
2022/07/30 19:46:47;;;;;;;19.50;15.15;;;;;;;14.43;100.00;96841.00;10366589;28;20645;-62
2022/07/30 19:51:47;;;;;;;16.23;13.40;;;;;;;14.48;100.00;96845.72;10381611;28;20220;-60
2022/07/30 19:56:48;;;;;;;17.80;14.23;;;;;;;14.39;100.00;96841.53;10368642;28;20276;-59
2022/07/30 20:01:48;;;;;;;19.92;15.52;;;;;;;14.21;100.00;96841.81;10368379;28;20215;-57
2022/07/30 20:06:48;;;;;;;25.20;16.10;;;;;;;14.23;100.00;96842.47;10368534;28;20221;-59
2022/07/30 20:11:49;;;;;;;21.17;18.90;;;;;;;13.94;100.00;96849.25;10367810;28;20244;-58
2022/07/30 20:16:49;;;;;;;24.55;19.30;;;;;;;13.95;100.00;96858.81;10368562;28;20802;-58
2022/07/30 20:21:49;;;;;;;21.77;17.90;;;;;;;13.93;100.00;96844.16;10367406;28;21087;-60
2022/07/30 20:26:50;;;;;;;22.08;18.88;;;;;;;13.89;100.00;96852.41;10367856;28;20603;-61
2022/07/30 20:31:50;;;;;;;26.60;20.35;;;;;;;13.81;100.00;96844.53;10366871;28;20244;-60
2022/07/30 20:36:51;;;;;;;24.67;20.48;;;;;;;13.80;100.00;96847.34;10367586;28;20196;-61
2022/07/30 20:42:06;;;;;;;29.83;23.60;;;;;;;13.71;100.00;96851.88;10367339;28;20712;-59
2022/07/30 20:47:07;;;;;;;29.75;24.48;;;;;;;13.72;100.00;96856.09;10366763;28;20226;-60
2022/07/30 20:52:10;;;;;;;24.30;21.30;;;;;;;13.74;100.00;96859.41;10367196;28;20315;-59
2022/07/30 20:57:11;;;;;;;27.08;22.52;;;;;;;13.73;100.00;96855.94;10366685;28;20185;-59
2022/07/30 21:02:11;;;;;;;29.88;21.83;;;;;;;13.69;100.00;96853.81;10366671;28;20617;-59
2022/07/30 21:07:11;;;;;;;30.40;22.02;;;;;;;13.58;100.00;96859.47;10366483;28;20282;-61
2022/07/30 21:12:12;;;;;;;26.10;22.02;;;;;;;13.51;100.00;96851.47;10366224;28;20236;-60
2022/07/30 21:17:12;;;;;;;25.88;22.92;;;;;;;13.49;100.00;96856.06;10366370;28;20189;-60
2022/07/30 21:22:12;;;;;;;30.67;24.65;;;;;;;13.49;100.00;96858.69;10364884;28;20225;-60
2022/07/30 21:27:13;;;;;;;25.10;20.63;;;;;;;13.54;100.00;96866.91;10366009;28;20225;-61
2022/07/30 21:32:13;;;;;;;23.23;20.83;;;;;;;13.37;100.00;96866.16;10366487;28;20330;-61
2022/07/30 21:37:14;;;;;;;25.05;21.92;;;;;;;13.26;100.00;96863.84;10365894;28;20260;-58
2022/07/30 21:42:14;;;;;;;25.10;21.27;;;;;;;13.27;100.00;96871.56;10368535;28;20220;-60
2022/07/30 21:47:14;;;;;;;24.35;20.20;;;;;;;13.30;100.00;96873.88;10374240;28;20225;-62
2022/07/30 21:52:15;;;;;;;29.88;22.38;;;;;;;13.07;100.00;96880.84;10373833;28;20208;-59
2022/07/30 21:57:16;;;;;;;22.70;20.40;;;;;;;13.12;100.00;96876.69;10373667;28;20203;-61
2022/07/30 22:02:17;;;;;;;26.13;21.13;;;;;;;13.05;100.00;96875.75;10373606;28;20729;-62
2022/07/30 22:07:18;;;;;;;24.17;21.67;;;;;;;13.02;100.00;96882.16;10374263;28;20233;-61
2022/07/30 22:12:19;;;;;;;26.98;21.60;;;;;;;12.94;100.00;96876.09;10373038;28;20239;-62
2022/07/30 22:17:19;;;;;;;24.55;21.77;;;;;;;12.99;100.00;96874.59;10373177;28;20284;-62
2022/07/30 22:22:19;;;;;;;23.58;19.42;;;;;;;12.97;100.00;96881.00;10372289;28;20221;-62
2022/07/30 22:27:20;;;;;;;23.63;19.25;;;;;;;12.91;100.00;96871.16;10372603;28;20213;-62
2022/07/30 22:32:20;;;;;;;24.15;21.67;;;;;;;12.72;100.00;96870.53;10372512;28;20290;-62
2022/07/30 22:37:21;;;;;;;26.63;20.95;;;;;;;12.84;100.00;96871.84;10372137;28;20190;-62
2022/07/30 22:42:22;;;;;;;22.20;19.90;;;;;;;12.81;100.00;96876.63;10372314;28;20336;-62
2022/07/30 22:47:22;;;;;;;25.65;20.83;;;;;;;12.73;100.00;96871.38;10371604;28;20217;-63
2022/07/30 22:52:23;;;;;;;21.67;19.10;;;;;;;12.69;100.00;96856.91;10371339;28;20192;-62
2022/07/30 22:57:23;;;;;;;24.30;19.92;;;;;;;12.58;100.00;96858.06;10371175;28;20197;-62
2022/07/30 23:02:23;;;;;;;24.10;19.88;;;;;;;12.63;100.00;96851.34;10371322;28;20284;-61